METAR AND TAF INFORMATION
METAR FOR VQPR
ADDS - METARS form results

(0110 UTC 18 June 2019)
Data provider http://aviationweather.gov/metar/data/
 
METAR text: VQPR 180030Z 17004KT 9999 FEW015 SCT040 BKN080 14/10 Q1017
Conditions at: VQPR (PARO , BT) observed 0030 UTC 18 June 2019
Temperature: 14.0°C (57°F)
Dewpoint: 10.0°C (50°F) [RH = 77%]
Pressure (altimeter): 30.03 inches Hg (1017.0 mb)
Winds: from the S (170 degrees) at 5 MPH (4 knots; 2.1 m/s)
Visibility: 6 or more miles (10+ km)
Ceiling: 8000 feet AGL
Clouds: few clouds at 1500 feet AGL
scattered clouds at 4000 feet AGL
broken clouds at 8000 feet AGL
Weather: no significant weather observed at this time

 AIRPORT MAP

 RUNWAY INFORMATION
Runway 15 Runway length 6445 ft Runway width 95 ft
Runway elevation 7355 ft Runway displaced threshold 0 ft Runway heading 151
Runway 33 Runway length 6445 ft Runway width 95 ft
Runway elevation 7328 ft Runway displaced threshold 0 ft Runway heading 331

 AIRPORT FREQUENCIES

 AIRPORT NEAR NAVIGATION AIDS
Type NDB Name Paro Frequency 410 KHZ
Type VOR Name Paro Frequency 108400 KHZ



Powered by Virtual Airlines Manager [v2.6.2]